sensor_id;sensor_type;location;lat;lon;timestamp;pressure;altitude;pressure_sealevel;temperature;humidity
46714;BME280;32445;51.376;10.874;2023-03-25T00:01:22;98240.69;;;10.78;55.71
46714;BME280;32445;51.376;10.874;2023-03-25T00:04:25;98238.94;;;10.79;55.05
46714;BME280;32445;51.376;10.874;2023-03-25T00:07:26;98226.66;;;10.82;55.43
46714;BME280;32445;51.376;10.874;2023-03-25T00:10:26;98224.63;;;10.89;55.49
46714;BME280;32445;51.376;10.874;2023-03-25T00:13:27;98221.31;;;10.85;55.13
46714;BME280;32445;51.376;10.874;2023-03-25T00:16:30;98222.03;;;10.89;55.39
46714;BME280;32445;51.376;10.874;2023-03-25T00:19:32;98218.66;;;10.87;56.00
46714;BME280;32445;51.376;10.874;2023-03-25T00:22:34;98219.56;;;10.86;55.67
46714;BME280;32445;51.376;10.874;2023-03-25T00:25:39;98217.81;;;10.86;55.36
46714;BME280;32445;51.376;10.874;2023-03-25T00:28:40;98223.09;;;10.85;55.53
46714;BME280;32445;51.376;10.874;2023-03-25T00:31:41;98216.13;;;10.85;55.72
46714;BME280;32445;51.376;10.874;2023-03-25T00:34:42;98215.47;;;10.82;55.26
46714;BME280;32445;51.376;10.874;2023-03-25T00:37:47;98205.13;;;10.80;55.63
46714;BME280;32445;51.376;10.874;2023-03-25T00:40:51;98211.25;;;10.79;56.01
46714;BME280;32445;51.376;10.874;2023-03-25T00:43:53;98212.16;;;10.78;56.03
46714;BME280;32445;51.376;10.874;2023-03-25T00:46:54;98209.56;;;10.78;55.49
46714;BME280;32445;51.376;10.874;2023-03-25T00:49:54;98206.72;;;10.83;55.61
46714;BME280;32445;51.376;10.874;2023-03-25T00:52:55;98199.03;;;10.81;55.62
46714;BME280;32445;51.376;10.874;2023-03-25T00:55:56;98210.13;;;10.85;55.19
46714;BME280;32445;51.376;10.874;2023-03-25T00:58:57;98204.22;;;10.81;55.34
46714;BME280;32445;51.376;10.874;2023-03-25T01:01:57;98197.63;;;10.74;55.33
46714;BME280;32445;51.376;10.874;2023-03-25T01:04:58;98216.84;;;10.70;55.78
46714;BME280;32445;51.376;10.874;2023-03-25T01:07:59;98210.34;;;10.61;56.35
46714;BME280;32445;51.376;10.874;2023-03-25T01:11:01;98214.72;;;10.61;56.55
46714;BME280;32445;51.376;10.874;2023-03-25T01:14:02;98209.66;;;10.58;56.41
46714;BME280;32445;51.376;10.874;2023-03-25T01:17:03;98200.34;;;10.53;56.20
46714;BME280;32445;51.376;10.874;2023-03-25T01:20:03;98202.88;;;10.55;56.12
46714;BME280;32445;51.376;10.874;2023-03-25T01:23:09;98205.47;;;10.55;56.29
46714;BME280;32445;51.376;10.874;2023-03-25T01:26:10;98200.19;;;10.56;56.55
46714;BME280;32445;51.376;10.874;2023-03-25T01:29:13;98196.63;;;10.59;55.71
46714;BME280;32445;51.376;10.874;2023-03-25T01:32:14;98194.78;;;10.61;55.64
46714;BME280;32445;51.376;10.874;2023-03-25T01:35:15;98196.53;;;10.61;56.01
46714;BME280;32445;51.376;10.874;2023-03-25T01:38:15;98199.00;;;10.64;55.60
46714;BME280;32445;51.376;10.874;2023-03-25T01:41:15;98191.66;;;10.54;56.22
46714;BME280;32445;51.376;10.874;2023-03-25T01:47:20;98176.44;;;10.47;56.48
46714;BME280;32445;51.376;10.874;2023-03-25T01:50:21;98171.09;;;10.50;55.70
46714;BME280;32445;51.376;10.874;2023-03-25T01:53:22;98159.88;;;10.49;56.30
46714;BME280;32445;51.376;10.874;2023-03-25T01:56:29;98176.28;;;10.50;56.07
46714;BME280;32445;51.376;10.874;2023-03-25T01:59:31;98187.44;;;10.52;55.95
46714;BME280;32445;51.376;10.874;2023-03-25T02:02:31;98192.34;;;10.58;55.40
46714;BME280;32445;51.376;10.874;2023-03-25T02:05:45;98179.22;;;10.61;55.95
46714;BME280;32445;51.376;10.874;2023-03-25T02:08:48;98184.09;;;10.67;55.43
46714;BME280;32445;51.376;10.874;2023-03-25T02:11:50;98190.06;;;10.69;55.46
46714;BME280;32445;51.376;10.874;2023-03-25T02:14:54;98178.91;;;10.67;55.17
46714;BME280;32445;51.376;10.874;2023-03-25T02:35:25;98168.31;;;10.54;55.89
46714;BME280;32445;51.376;10.874;2023-03-25T02:38:35;98168.06;;;10.59;55.69
46714;BME280;32445;51.376;10.874;2023-03-25T02:44:44;98180.69;;;10.67;55.11
46714;BME280;32445;51.376;10.874;2023-03-25T02:47:50;98165.09;;;10.67;55.26
46714;BME280;32445;51.376;10.874;2023-03-25T02:50:55;98168.41;;;10.70;55.20
46714;BME280;32445;51.376;10.874;2023-03-25T02:54:02;98181.38;;;10.70;56.02
46714;BME280;32445;51.376;10.874;2023-03-25T02:57:04;98166.56;;;10.72;55.34
46714;BME280;32445;51.376;10.874;2023-03-25T03:00:09;98174.97;;;10.78;55.14
46714;BME280;32445;51.376;10.874;2023-03-25T03:03:14;98172.31;;;10.79;54.92
46714;BME280;32445;51.376;10.874;2023-03-25T03:06:16;98167.94;;;10.80;54.95
46714;BME280;32445;51.376;10.874;2023-03-25T03:09:46;98174.28;;;10.74;55.92
46714;BME280;32445;51.376;10.874;2023-03-25T03:16:08;98176.94;;;10.72;55.01
46714;BME280;32445;51.376;10.874;2023-03-25T03:28:50;98155.03;;;10.61;55.78
46714;BME280;32445;51.376;10.874;2023-03-25T03:32:08;98160.38;;;10.58;55.92
46714;BME280;32445;51.376;10.874;2023-03-25T03:35:16;98162.03;;;10.59;55.65
46714;BME280;32445;51.376;10.874;2023-03-25T03:38:24;98157.69;;;10.59;55.93
46714;BME280;32445;51.376;10.874;2023-03-25T03:41:25;98162.09;;;10.57;56.01
46714;BME280;32445;51.376;10.874;2023-03-25T03:44:35;98148.31;;;10.56;55.90
46714;BME280;32445;51.376;10.874;2023-03-25T03:47:42;98151.66;;;10.59;55.70
46714;BME280;32445;51.376;10.874;2023-03-25T03:50:51;98162.19;;;10.55;55.76
46714;BME280;32445;51.376;10.874;2023-03-25T03:57:08;98156.31;;;10.52;54.91
46714;BME280;32445;51.376;10.874;2023-03-25T04:00:18;98159.72;;;10.52;55.27
46714;BME280;32445;51.376;10.874;2023-03-25T04:03:25;98166.69;;;10.52;55.70
46714;BME280;32445;51.376;10.874;2023-03-25T04:06:34;98169.34;;;10.50;55.06
46714;BME280;32445;51.376;10.874;2023-03-25T04:12:57;98173.16;;;10.43;55.32
46714;BME280;32445;51.376;10.874;2023-03-25T04:15:59;98183.53;;;10.43;54.88
46714;BME280;32445;51.376;10.874;2023-03-25T04:19:00;98179.31;;;10.41;54.71
46714;BME280;32445;51.376;10.874;2023-03-25T04:22:04;98178.78;;;10.32;55.18
46714;BME280;32445;51.376;10.874;2023-03-25T04:25:05;98185.81;;;10.30;55.21
46714;BME280;32445;51.376;10.874;2023-03-25T04:28:05;98188.41;;;10.30;54.41
46714;BME280;32445;51.376;10.874;2023-03-25T04:31:14;98186.88;;;10.26;54.77
46714;BME280;32445;51.376;10.874;2023-03-25T04:34:14;98181.94;;;10.20;54.66
46714;BME280;32445;51.376;10.874;2023-03-25T04:37:15;98189.78;;;10.18;55.19
46714;BME280;32445;51.376;10.874;2023-03-25T04:40:15;98184.00;;;10.13;54.96
46714;BME280;32445;51.376;10.874;2023-03-25T04:43:17;98187.28;;;10.17;54.80
46714;BME280;32445;51.376;10.874;2023-03-25T04:46:18;98191.78;;;10.13;54.64
46714;BME280;32445;51.376;10.874;2023-03-25T04:49:20;98184.97;;;10.11;55.10
46714;BME280;32445;51.376;10.874;2023-03-25T04:52:20;98192.59;;;10.14;55.08
46714;BME280;32445;51.376;10.874;2023-03-25T04:55:21;98186.44;;;10.16;54.00
46714;BME280;32445;51.376;10.874;2023-03-25T04:58:21;98187.34;;;10.15;54.25
46714;BME280;32445;51.376;10.874;2023-03-25T05:01:27;98182.16;;;10.15;54.18
46714;BME280;32445;51.376;10.874;2023-03-25T05:04:31;98189.19;;;10.13;54.19
46714;BME280;32445;51.376;10.874;2023-03-25T05:07:32;98186.66;;;10.12;53.98
46714;BME280;32445;51.376;10.874;2023-03-25T05:10:33;98183.13;;;10.13;54.03
46714;BME280;32445;51.376;10.874;2023-03-25T05:13:35;98187.50;;;10.12;54.16
46714;BME280;32445;51.376;10.874;2023-03-25T05:16:35;98189.94;;;10.15;54.54
46714;BME280;32445;51.376;10.874;2023-03-25T05:19:35;98199.41;;;10.16;53.74
46714;BME280;32445;51.376;10.874;2023-03-25T05:22:37;98193.44;;;10.14;54.99
46714;BME280;32445;51.376;10.874;2023-03-25T05:25:38;98203.56;;;10.20;54.47
46714;BME280;32445;51.376;10.874;2023-03-25T05:28:39;98208.59;;;10.24;54.25
46714;BME280;32445;51.376;10.874;2023-03-25T05:31:41;98221.56;;;10.24;54.06
46714;BME280;32445;51.376;10.874;2023-03-25T05:34:44;98204.31;;;10.22;53.86
46714;BME280;32445;51.376;10.874;2023-03-25T05:37:45;98198.06;;;10.27;54.42
46714;BME280;32445;51.376;10.874;2023-03-25T05:40:47;98222.47;;;10.22;54.25
46714;BME280;32445;51.376;10.874;2023-03-25T05:43:48;98216.91;;;10.11;54.60
46714;BME280;32445;51.376;10.874;2023-03-25T05:46:49;98233.50;;;10.07;54.29
46714;BME280;32445;51.376;10.874;2023-03-25T05:49:51;98233.59;;;10.05;54.43
46714;BME280;32445;51.376;10.874;2023-03-25T05:52:53;98232.97;;;10.00;55.02
46714;BME280;32445;51.376;10.874;2023-03-25T05:55:54;98230.69;;;9.93;54.83
46714;BME280;32445;51.376;10.874;2023-03-25T05:58:54;98238.59;;;9.90;55.97
46714;BME280;32445;51.376;10.874;2023-03-25T06:01:56;98228.50;;;9.83;55.76
46714;BME280;32445;51.376;10.874;2023-03-25T06:04:56;98229.63;;;9.78;56.57
46714;BME280;32445;51.376;10.874;2023-03-25T06:07:57;98228.84;;;9.76;57.07
46714;BME280;32445;51.376;10.874;2023-03-25T06:10:57;98232.34;;;9.75;57.48
46714;BME280;32445;51.376;10.874;2023-03-25T06:13:58;98223.59;;;9.77;57.80
46714;BME280;32445;51.376;10.874;2023-03-25T06:16:58;98234.53;;;9.84;56.41
46714;BME280;32445;51.376;10.874;2023-03-25T06:19:58;98235.38;;;9.84;57.11
46714;BME280;32445;51.376;10.874;2023-03-25T06:23:00;98240.56;;;9.84;56.88
46714;BME280;32445;51.376;10.874;2023-03-25T06:26:01;98236.97;;;9.87;57.23
46714;BME280;32445;51.376;10.874;2023-03-25T06:29:03;98235.50;;;9.81;56.96
46714;BME280;32445;51.376;10.874;2023-03-25T06:32:04;98240.88;;;9.77;56.95
46714;BME280;32445;51.376;10.874;2023-03-25T06:35:06;98242.66;;;9.76;56.91
46714;BME280;32445;51.376;10.874;2023-03-25T06:38:09;98248.59;;;9.78;57.04
46714;BME280;32445;51.376;10.874;2023-03-25T06:41:10;98251.13;;;9.80;56.91
46714;BME280;32445;51.376;10.874;2023-03-25T06:44:12;98249.38;;;9.80;56.95
46714;BME280;32445;51.376;10.874;2023-03-25T06:47:13;98258.00;;;9.81;57.54
46714;BME280;32445;51.376;10.874;2023-03-25T06:50:13;98260.50;;;9.82;57.17
46714;BME280;32445;51.376;10.874;2023-03-25T06:53:13;98268.09;;;9.87;57.31
46714;BME280;32445;51.376;10.874;2023-03-25T06:56:14;98279.19;;;9.91;57.19
46714;BME280;32445;51.376;10.874;2023-03-25T06:59:14;98298.28;;;9.88;57.61
46714;BME280;32445;51.376;10.874;2023-03-25T07:02:15;98301.16;;;9.82;58.72
46714;BME280;32445;51.376;10.874;2023-03-25T07:05:15;98271.69;;;9.84;58.09
46714;BME280;32445;51.376;10.874;2023-03-25T07:08:16;98262.72;;;9.92;57.18
46714;BME280;32445;51.376;10.874;2023-03-25T07:11:20;98278.75;;;10.00;56.84
46714;BME280;32445;51.376;10.874;2023-03-25T07:14:22;98269.81;;;10.07;56.87
46714;BME280;32445;51.376;10.874;2023-03-25T07:17:23;98252.31;;;10.12;56.92
46714;BME280;32445;51.376;10.874;2023-03-25T07:20:23;98257.34;;;10.15;56.56
46714;BME280;32445;51.376;10.874;2023-03-25T07:23:24;98264.94;;;10.20;56.44
46714;BME280;32445;51.376;10.874;2023-03-25T07:26:24;98257.22;;;10.18;57.13
46714;BME280;32445;51.376;10.874;2023-03-25T07:29:24;98254.00;;;10.13;57.69
46714;BME280;32445;51.376;10.874;2023-03-25T07:32:25;98253.41;;;10.07;57.72
46714;BME280;32445;51.376;10.874;2023-03-25T07:35:25;98263.78;;;10.07;58.17
46714;BME280;32445;51.376;10.874;2023-03-25T07:38:25;98264.63;;;10.07;57.42
46714;BME280;32445;51.376;10.874;2023-03-25T07:41:26;98263.88;;;10.05;57.79
46714;BME280;32445;51.376;10.874;2023-03-25T07:44:26;98279.34;;;10.07;58.39
46714;BME280;32445;51.376;10.874;2023-03-25T07:47:26;98280.16;;;10.09;58.66
46714;BME280;32445;51.376;10.874;2023-03-25T07:50:27;98264.44;;;10.12;58.33
46714;BME280;32445;51.376;10.874;2023-03-25T07:53:27;98263.88;;;10.05;58.70
46714;BME280;32445;51.376;10.874;2023-03-25T07:56:27;98278.75;;;10.00;58.59
46714;BME280;32445;51.376;10.874;2023-03-25T07:59:28;98280.53;;;9.99;59.23
46714;BME280;32445;51.376;10.874;2023-03-25T08:02:28;98260.63;;;10.00;59.13
46714;BME280;32445;51.376;10.874;2023-03-25T08:05:29;98257.13;;;10.01;59.26
46714;BME280;32445;51.376;10.874;2023-03-25T08:08:30;98251.94;;;10.01;59.33
46714;BME280;32445;51.376;10.874;2023-03-25T08:11:30;98252.66;;;10.04;59.14
46714;BME280;32445;51.376;10.874;2023-03-25T08:14:31;98265.34;;;10.11;59.43
46714;BME280;32445;51.376;10.874;2023-03-25T08:17:31;98266.69;;;10.19;59.36
46714;BME280;32445;51.376;10.874;2023-03-25T08:20:35;98281.06;;;10.27;59.71
46714;BME280;32445;51.376;10.874;2023-03-25T08:23:35;98273.13;;;10.30;60.29
46714;BME280;32445;51.376;10.874;2023-03-25T08:26:36;98264.59;;;10.28;60.14
46714;BME280;32445;51.376;10.874;2023-03-25T08:29:37;98270.47;;;10.31;60.37
46714;BME280;32445;51.376;10.874;2023-03-25T08:32:38;98264.22;;;10.37;60.39
46714;BME280;32445;51.376;10.874;2023-03-25T08:35:39;98260.41;;;10.44;59.95
46714;BME280;32445;51.376;10.874;2023-03-25T08:38:40;98262.84;;;10.49;59.57
46714;BME280;32445;51.376;10.874;2023-03-25T08:41:41;98268.63;;;10.54;58.91
46714;BME280;32445;51.376;10.874;2023-03-25T08:44:42;98256.38;;;10.58;59.15
46714;BME280;32445;51.376;10.874;2023-03-25T08:47:42;98260.38;;;10.65;57.95
46714;BME280;32445;51.376;10.874;2023-03-25T08:50:42;98260.22;;;10.68;57.21
46714;BME280;32445;51.376;10.874;2023-03-25T08:53:43;98260.91;;;10.71;57.78
46714;BME280;32445;51.376;10.874;2023-03-25T08:56:43;98277.03;;;10.78;56.89
46714;BME280;32445;51.376;10.874;2023-03-25T08:59:44;98277.53;;;10.86;56.56
46714;BME280;32445;51.376;10.874;2023-03-25T09:02:44;98270.28;;;10.93;56.38
46714;BME280;32445;51.376;10.874;2023-03-25T09:05:45;98275.88;;;11.03;55.86
46714;BME280;32445;51.376;10.874;2023-03-25T09:08:45;98276.44;;;11.10;55.75
46714;BME280;32445;51.376;10.874;2023-03-25T09:11:45;98275.16;;;11.18;55.25
46714;BME280;32445;51.376;10.874;2023-03-25T09:14:46;98279.44;;;11.19;54.77
46714;BME280;32445;51.376;10.874;2023-03-25T09:17:46;98280.13;;;11.23;54.64
46714;BME280;32445;51.376;10.874;2023-03-25T09:20:47;98282.44;;;11.29;54.98
46714;BME280;32445;51.376;10.874;2023-03-25T09:23:47;98277.25;;;11.29;54.15
46714;BME280;32445;51.376;10.874;2023-03-25T09:26:47;98278.22;;;11.27;53.76
46714;BME280;32445;51.376;10.874;2023-03-25T09:29:48;98275.47;;;11.30;53.60
46714;BME280;32445;51.376;10.874;2023-03-25T09:32:48;98276.09;;;11.35;53.47
46714;BME280;32445;51.376;10.874;2023-03-25T09:35:48;98284.56;;;11.38;53.20
46714;BME280;32445;51.376;10.874;2023-03-25T09:38:49;98280.91;;;11.42;52.86
46714;BME280;32445;51.376;10.874;2023-03-25T09:42:18;98299.94;;;11.43;52.34
46714;BME280;32445;51.376;10.874;2023-03-25T09:45:38;98286.09;;;11.42;51.94
46714;BME280;32445;51.376;10.874;2023-03-25T09:48:43;98290.31;;;11.45;52.33
46714;BME280;32445;51.376;10.874;2023-03-25T09:51:46;98286.78;;;11.46;51.43
46714;BME280;32445;51.376;10.874;2023-03-25T09:54:51;98295.44;;;11.47;51.95
46714;BME280;32445;51.376;10.874;2023-03-25T09:58:01;98285.78;;;11.49;51.43
46714;BME280;32445;51.376;10.874;2023-03-25T10:08:10;98299.03;;;11.62;50.52
46714;BME280;32445;51.376;10.874;2023-03-25T10:14:55;98291.38;;;11.76;51.38
46714;BME280;32445;51.376;10.874;2023-03-25T10:21:17;98282.41;;;11.82;50.05
46714;BME280;32445;51.376;10.874;2023-03-25T10:24:27;98287.53;;;11.83;50.13
46714;BME280;32445;51.376;10.874;2023-03-25T10:30:38;98263.63;;;11.94;50.72
46714;BME280;32445;51.376;10.874;2023-03-25T10:33:46;98272.09;;;11.98;49.41
46714;BME280;32445;51.376;10.874;2023-03-25T10:36:54;98263.22;;;12.02;49.84
46714;BME280;32445;51.376;10.874;2023-03-25T10:40:11;98259.63;;;12.04;48.87
46714;BME280;32445;51.376;10.874;2023-03-25T10:46:35;98244.56;;;12.11;49.08
46714;BME280;32445;51.376;10.874;2023-03-25T10:49:47;98246.66;;;12.20;49.18
46714;BME280;32445;51.376;10.874;2023-03-25T10:52:48;98251.69;;;12.23;48.58
46714;BME280;32445;51.376;10.874;2023-03-25T10:55:57;98243.97;;;12.22;49.47
46714;BME280;32445;51.376;10.874;2023-03-25T10:59:03;98250.50;;;12.13;49.63
46714;BME280;32445;51.376;10.874;2023-03-25T11:02:32;98255.34;;;12.03;50.27
46714;BME280;32445;51.376;10.874;2023-03-25T11:05:33;98257.28;;;12.00;51.22
46714;BME280;32445;51.376;10.874;2023-03-25T11:08:34;98255.84;;;11.94;51.42
46714;BME280;32445;51.376;10.874;2023-03-25T11:11:35;98263.56;;;11.96;51.79
46714;BME280;32445;51.376;10.874;2023-03-25T11:14:37;98239.44;;;11.92;51.62
46714;BME280;32445;51.376;10.874;2023-03-25T11:17:39;98239.41;;;11.93;51.55
46714;BME280;32445;51.376;10.874;2023-03-25T11:20:50;98231.88;;;11.87;51.40
46714;BME280;32445;51.376;10.874;2023-03-25T11:23:51;98243.66;;;11.94;51.26
46714;BME280;32445;51.376;10.874;2023-03-25T11:26:52;98226.75;;;12.03;51.75
46714;BME280;32445;51.376;10.874;2023-03-25T11:29:59;98230.84;;;12.07;51.04
46714;BME280;32445;51.376;10.874;2023-03-25T11:33:10;98226.19;;;12.14;51.36
46714;BME280;32445;51.376;10.874;2023-03-25T11:36:29;98235.25;;;12.23;50.89
46714;BME280;32445;51.376;10.874;2023-03-25T11:39:39;98250.53;;;12.29;50.43
46714;BME280;32445;51.376;10.874;2023-03-25T11:42:42;98242.97;;;12.24;49.84
46714;BME280;32445;51.376;10.874;2023-03-25T11:45:48;98259.75;;;12.19;50.74
46714;BME280;32445;51.376;10.874;2023-03-25T11:48:49;98233.16;;;12.14;51.12
46714;BME280;32445;51.376;10.874;2023-03-25T11:51:56;98257.22;;;12.17;50.68
46714;BME280;32445;51.376;10.874;2023-03-25T11:54:57;98239.81;;;12.19;50.57
46714;BME280;32445;51.376;10.874;2023-03-25T11:57:58;98238.47;;;12.28;50.67
46714;BME280;32445;51.376;10.874;2023-03-25T12:01:03;98248.00;;;12.27;49.67
46714;BME280;32445;51.376;10.874;2023-03-25T12:07:14;98249.78;;;12.27;49.30
46714;BME280;32445;51.376;10.874;2023-03-25T12:10:19;98252.47;;;12.25;49.76
46714;BME280;32445;51.376;10.874;2023-03-25T12:16:59;98242.41;;;12.19;48.88
46714;BME280;32445;51.376;10.874;2023-03-25T12:20:26;98246.66;;;12.20;48.93
46714;BME280;32445;51.376;10.874;2023-03-25T12:30:40;98224.03;;;12.54;49.32
46714;BME280;32445;51.376;10.874;2023-03-25T12:34:08;98232.00;;;12.67;48.82
46714;BME280;32445;51.376;10.874;2023-03-25T13:04:06;98179.78;;;13.76;46.22
46714;BME280;32445;51.376;10.874;2023-03-25T13:10:33;98197.84;;;13.93;45.35
46714;BME280;32445;51.376;10.874;2023-03-25T13:13:37;98192.16;;;13.87;44.45
46714;BME280;32445;51.376;10.874;2023-03-25T13:16:39;98218.06;;;13.90;44.88
46714;BME280;32445;51.376;10.874;2023-03-25T13:19:42;98195.34;;;13.92;45.11
46714;BME280;32445;51.376;10.874;2023-03-25T13:22:48;98195.34;;;13.92;44.62
46714;BME280;32445;51.376;10.874;2023-03-25T13:25:56;98205.31;;;13.85;44.19
46714;BME280;32445;51.376;10.874;2023-03-25T13:29:01;98195.81;;;13.84;44.30
46714;BME280;32445;51.376;10.874;2023-03-25T13:32:09;98201.50;;;13.91;44.78
46714;BME280;32445;51.376;10.874;2023-03-25T13:38:28;98190.22;;;14.05;44.48
46714;BME280;32445;51.376;10.874;2023-03-25T13:42:06;98184.34;;;14.01;44.44
46714;BME280;32445;51.376;10.874;2023-03-25T13:45:19;98174.06;;;14.12;44.53
46714;BME280;32445;51.376;10.874;2023-03-25T13:48:34;98182.84;;;14.11;44.49
46714;BME280;32445;51.376;10.874;2023-03-25T13:51:38;98170.75;;;14.10;44.76
46714;BME280;32445;51.376;10.874;2023-03-25T13:54:55;98189.72;;;14.12;44.85
46714;BME280;32445;51.376;10.874;2023-03-25T14:01:40;98165.88;;;13.90;44.99
46714;BME280;32445;51.376;10.874;2023-03-25T14:04:50;98157.53;;;13.99;45.76
46714;BME280;32445;51.376;10.874;2023-03-25T14:08:01;98171.56;;;14.11;45.21
46714;BME280;32445;51.376;10.874;2023-03-25T14:11:29;98161.78;;;14.14;45.15
46714;BME280;32445;51.376;10.874;2023-03-25T14:14:38;98165.59;;;14.23;44.45
46714;BME280;32445;51.376;10.874;2023-03-25T14:17:42;98188.06;;;14.26;44.63
46714;BME280;32445;51.376;10.874;2023-03-25T14:20:47;98179.56;;;14.22;44.28
46714;BME280;32445;51.376;10.874;2023-03-25T14:23:48;98173.03;;;14.29;44.49
46714;BME280;32445;51.376;10.874;2023-03-25T14:26:52;98175.25;;;14.35;44.23
46714;BME280;32445;51.376;10.874;2023-03-25T14:29:58;98170.88;;;14.36;43.52
46714;BME280;32445;51.376;10.874;2023-03-25T14:32:59;98174.31;;;14.36;44.34
46714;BME280;32445;51.376;10.874;2023-03-25T14:36:03;98176.19;;;14.34;43.44
46714;BME280;32445;51.376;10.874;2023-03-25T14:42:28;98173.53;;;14.22;43.55
46714;BME280;32445;51.376;10.874;2023-03-25T14:45:39;98171.22;;;14.17;43.83
46714;BME280;32445;51.376;10.874;2023-03-25T14:48:51;98157.78;;;14.09;44.05
46714;BME280;32445;51.376;10.874;2023-03-25T14:51:55;98182.94;;;13.95;43.94
46714;BME280;32445;51.376;10.874;2023-03-25T14:54:59;98179.13;;;13.87;44.00
46714;BME280;32445;51.376;10.874;2023-03-25T14:58:13;98176.06;;;13.80;44.08
46714;BME280;32445;51.376;10.874;2023-03-25T15:01:18;98164.97;;;13.76;44.33
46714;BME280;32445;51.376;10.874;2023-03-25T15:04:28;98192.94;;;13.74;43.49
46714;BME280;32445;51.376;10.874;2023-03-25T15:11:14;98164.38;;;13.57;45.21
46714;BME280;32445;51.376;10.874;2023-03-25T15:14:20;98162.75;;;13.56;44.93
46714;BME280;32445;51.376;10.874;2023-03-25T15:17:44;98170.66;;;13.54;45.55
46714;BME280;32445;51.376;10.874;2023-03-25T15:20:45;98160.78;;;13.59;44.96
46714;BME280;32445;51.376;10.874;2023-03-25T15:23:46;98167.66;;;13.60;44.63
46714;BME280;32445;51.376;10.874;2023-03-25T15:26:47;98162.56;;;13.59;44.36
46714;BME280;32445;51.376;10.874;2023-03-25T15:33:05;98175.69;;;13.57;44.35
46714;BME280;32445;51.376;10.874;2023-03-25T15:40:07;98204.34;;;13.57;43.91
46714;BME280;32445;51.376;10.874;2023-03-25T15:46:58;98186.09;;;13.43;44.02
46714;BME280;32445;51.376;10.874;2023-03-25T15:50:18;98197.91;;;13.48;44.06
46714;BME280;32445;51.376;10.874;2023-03-25T15:56:39;98195.22;;;13.50;45.09
46714;BME280;32445;51.376;10.874;2023-03-25T16:00:15;98208.88;;;13.39;46.07
46714;BME280;32445;51.376;10.874;2023-03-25T16:03:22;98195.84;;;13.39;46.58
46714;BME280;32445;51.376;10.874;2023-03-25T16:06:25;98203.16;;;13.32;47.01
46714;BME280;32445;51.376;10.874;2023-03-25T16:09:27;98208.91;;;13.23;47.19
46714;BME280;32445;51.376;10.874;2023-03-25T16:12:28;98206.97;;;13.11;47.20
46714;BME280;32445;51.376;10.874;2023-03-25T16:15:30;98205.00;;;13.00;47.09
46714;BME280;32445;51.376;10.874;2023-03-25T16:18:31;98199.22;;;12.95;47.23
46714;BME280;32445;51.376;10.874;2023-03-25T16:21:32;98207.28;;;12.90;47.36
46714;BME280;32445;51.376;10.874;2023-03-25T16:24:32;98192.66;;;12.88;47.25
46714;BME280;32445;51.376;10.874;2023-03-25T16:27:35;98186.38;;;12.92;47.44
46714;BME280;32445;51.376;10.874;2023-03-25T16:30:38;98200.47;;;12.88;47.24
46714;BME280;32445;51.376;10.874;2023-03-25T16:33:39;98192.34;;;12.78;47.04
46714;BME280;32445;51.376;10.874;2023-03-25T16:36:45;98192.19;;;12.65;47.07
46714;BME280;32445;51.376;10.874;2023-03-25T16:39:51;98183.72;;;12.61;47.40
46714;BME280;32445;51.376;10.874;2023-03-25T16:42:53;98181.94;;;12.62;47.55
46714;BME280;32445;51.376;10.874;2023-03-25T16:46:04;98178.59;;;12.60;47.59
46714;BME280;32445;51.376;10.874;2023-03-25T16:49:15;98185.31;;;12.64;47.49
46714;BME280;32445;51.376;10.874;2023-03-25T16:52:27;98180.03;;;12.66;47.44
46714;BME280;32445;51.376;10.874;2023-03-25T16:55:32;98210.28;;;12.68;47.48
46714;BME280;32445;51.376;10.874;2023-03-25T16:58:33;98210.59;;;12.62;47.81
46714;BME280;32445;51.376;10.874;2023-03-25T17:01:40;98215.53;;;12.51;47.98
46714;BME280;32445;51.376;10.874;2023-03-25T17:04:43;98223.59;;;12.46;48.31
46714;BME280;32445;51.376;10.874;2023-03-25T17:07:45;98223.34;;;12.35;48.82
46714;BME280;32445;51.376;10.874;2023-03-25T17:10:49;98252.31;;;12.28;49.19
46714;BME280;32445;51.376;10.874;2023-03-25T17:13:52;98254.47;;;12.20;49.46
46714;BME280;32445;51.376;10.874;2023-03-25T17:16:55;98252.28;;;12.13;49.54
46714;BME280;32445;51.376;10.874;2023-03-25T17:19:59;98259.03;;;11.99;50.40
46714;BME280;32445;51.376;10.874;2023-03-25T17:23:05;98273.03;;;11.97;50.42
46714;BME280;32445;51.376;10.874;2023-03-25T17:26:11;98258.72;;;11.88;50.65
46714;BME280;32445;51.376;10.874;2023-03-25T17:29:13;98250.72;;;11.75;51.01
46714;BME280;32445;51.376;10.874;2023-03-25T17:32:16;98252.00;;;11.66;51.02
46714;BME280;32445;51.376;10.874;2023-03-25T17:35:25;98266.31;;;11.57;51.16
46714;BME280;32445;51.376;10.874;2023-03-25T17:38:35;98258.50;;;11.57;51.39
46714;BME280;32445;51.376;10.874;2023-03-25T17:41:37;98270.00;;;11.53;51.41
46714;BME280;32445;51.376;10.874;2023-03-25T17:44:42;98274.25;;;11.54;51.19
46714;BME280;32445;51.376;10.874;2023-03-25T17:47:44;98271.56;;;11.56;50.55
46714;BME280;32445;51.376;10.874;2023-03-25T17:50:53;98262.19;;;11.53;50.77
46714;BME280;32445;51.376;10.874;2023-03-25T17:53:54;98270.13;;;11.50;50.51
46714;BME280;32445;51.376;10.874;2023-03-25T17:56:55;98270.34;;;11.46;51.44
46714;BME280;32445;51.376;10.874;2023-03-25T17:59:55;98259.06;;;11.47;50.72
46714;BME280;32445;51.376;10.874;2023-03-25T18:02:56;98261.88;;;11.42;51.05
46714;BME280;32445;51.376;10.874;2023-03-25T18:05:57;98250.63;;;11.41;51.39
46714;BME280;32445;51.376;10.874;2023-03-25T18:08:59;98259.41;;;11.39;51.07
46714;BME280;32445;51.376;10.874;2023-03-25T18:12:00;98260.34;;;11.38;50.99
46714;BME280;32445;51.376;10.874;2023-03-25T18:15:00;98245.84;;;11.34;50.77
46714;BME280;32445;51.376;10.874;2023-03-25T18:18:02;98241.00;;;11.26;51.59